sensor_id;sensor_type;location;lat;lon;timestamp;P1;durP1;ratioP1;P2;durP2;ratioP2
20245;SDS011;10281;54.406;18.556;2022-09-01T00:02:23;2.47;;;1.50;;
20245;SDS011;10281;54.406;18.556;2022-09-01T00:04:53;2.47;;;1.47;;
20245;SDS011;10281;54.406;18.556;2022-09-01T00:07:23;5.20;;;1.50;;
20245;SDS011;10281;54.406;18.556;2022-09-01T00:09:54;2.77;;;1.53;;
20245;SDS011;10281;54.406;18.556;2022-09-01T00:12:20;1.73;;;1.20;;
20245;SDS011;10281;54.406;18.556;2022-09-01T00:14:49;2.97;;;1.30;;
20245;SDS011;10281;54.406;18.556;2022-09-01T00:17:15;1.90;;;1.40;;
20245;SDS011;10281;54.406;18.556;2022-09-01T00:19:42;2.73;;;1.30;;
20245;SDS011;10281;54.406;18.556;2022-09-01T00:22:09;2.93;;;1.30;;
20245;SDS011;10281;54.406;18.556;2022-09-01T00:24:35;3.17;;;1.20;;
20245;SDS011;10281;54.406;18.556;2022-09-01T00:27:02;4.77;;;1.50;;
20245;SDS011;10281;54.406;18.556;2022-09-01T00:29:29;2.03;;;1.17;;
20245;SDS011;10281;54.406;18.556;2022-09-01T00:31:55;1.20;;;1.07;;
20245;SDS011;10281;54.406;18.556;2022-09-01T00:34:22;3.27;;;1.43;;
20245;SDS011;10281;54.406;18.556;2022-09-01T00:36:49;2.53;;;1.50;;
20245;SDS011;10281;54.406;18.556;2022-09-01T00:39:16;2.93;;;1.20;;
20245;SDS011;10281;54.406;18.556;2022-09-01T00:41:42;6.50;;;1.20;;
20245;SDS011;10281;54.406;18.556;2022-09-01T00:44:13;1.73;;;0.90;;
20245;SDS011;10281;54.406;18.556;2022-09-01T00:46:45;2.30;;;1.17;;
20245;SDS011;10281;54.406;18.556;2022-09-01T00:49:18;1.30;;;1.00;;
20245;SDS011;10281;54.406;18.556;2022-09-01T00:52:15;2.07;;;1.20;;
20245;SDS011;10281;54.406;18.556;2022-09-01T00:54:47;2.97;;;1.27;;
20245;SDS011;10281;54.406;18.556;2022-09-01T00:57:15;1.30;;;1.00;;
20245;SDS011;10281;54.406;18.556;2022-09-01T00:59:45;1.30;;;0.93;;
20245;SDS011;10281;54.406;18.556;2022-09-01T01:02:13;1.10;;;0.90;;
20245;SDS011;10281;54.406;18.556;2022-09-01T01:04:40;1.90;;;1.20;;
20245;SDS011;10281;54.406;18.556;2022-09-01T01:07:08;1.93;;;0.90;;
20245;SDS011;10281;54.406;18.556;2022-09-01T01:09:37;2.37;;;1.00;;
20245;SDS011;10281;54.406;18.556;2022-09-01T01:12:06;3.13;;;0.93;;
20245;SDS011;10281;54.406;18.556;2022-09-01T01:14:36;2.33;;;0.97;;
20245;SDS011;10281;54.406;18.556;2022-09-01T01:17:04;2.03;;;1.10;;
20245;SDS011;10281;54.406;18.556;2022-09-01T01:19:37;3.13;;;1.00;;
20245;SDS011;10281;54.406;18.556;2022-09-01T01:22:13;2.50;;;1.00;;
20245;SDS011;10281;54.406;18.556;2022-09-01T01:24:50;1.00;;;0.87;;
20245;SDS011;10281;54.406;18.556;2022-09-01T01:27:16;1.87;;;1.00;;
20245;SDS011;10281;54.406;18.556;2022-09-01T01:29:45;1.97;;;1.20;;
20245;SDS011;10281;54.406;18.556;2022-09-01T01:32:13;0.90;;;0.90;;
20245;SDS011;10281;54.406;18.556;2022-09-01T01:34:39;1.07;;;1.00;;
20245;SDS011;10281;54.406;18.556;2022-09-01T01:37:08;3.23;;;1.00;;
20245;SDS011;10281;54.406;18.556;2022-09-01T01:39:37;2.27;;;1.10;;
20245;SDS011;10281;54.406;18.556;2022-09-01T01:42:07;2.30;;;0.90;;
20245;SDS011;10281;54.406;18.556;2022-09-01T01:44:35;1.57;;;0.83;;
20245;SDS011;10281;54.406;18.556;2022-09-01T01:47:04;2.73;;;1.00;;
20245;SDS011;10281;54.406;18.556;2022-09-01T01:49:34;2.03;;;1.03;;
20245;SDS011;10281;54.406;18.556;2022-09-01T01:52:01;1.63;;;0.90;;
20245;SDS011;10281;54.406;18.556;2022-09-01T01:54:29;3.23;;;1.13;;
20245;SDS011;10281;54.406;18.556;2022-09-01T01:56:57;2.83;;;0.90;;
20245;SDS011;10281;54.406;18.556;2022-09-01T01:59:25;1.70;;;0.80;;
20245;SDS011;10281;54.406;18.556;2022-09-01T02:01:54;2.70;;;1.00;;
20245;SDS011;10281;54.406;18.556;2022-09-01T02:04:21;1.87;;;1.10;;
20245;SDS011;10281;54.406;18.556;2022-09-01T02:06:48;1.73;;;1.10;;
20245;SDS011;10281;54.406;18.556;2022-09-01T02:09:17;2.00;;;1.20;;
20245;SDS011;10281;54.406;18.556;2022-09-01T02:11:48;1.37;;;0.90;;
20245;SDS011;10281;54.406;18.556;2022-09-01T02:14:16;1.13;;;0.90;;
20245;SDS011;10281;54.406;18.556;2022-09-01T02:16:45;3.07;;;0.93;;
20245;SDS011;10281;54.406;18.556;2022-09-01T02:19:11;1.40;;;0.80;;
20245;SDS011;10281;54.406;18.556;2022-09-01T02:21:38;1.37;;;0.90;;
20245;SDS011;10281;54.406;18.556;2022-09-01T02:24:07;2.67;;;0.90;;
20245;SDS011;10281;54.406;18.556;2022-09-01T02:26:35;0.70;;;0.70;;
20245;SDS011;10281;54.406;18.556;2022-09-01T02:29:05;1.37;;;0.70;;
20245;SDS011;10281;54.406;18.556;2022-09-01T02:31:35;0.90;;;0.90;;
20245;SDS011;10281;54.406;18.556;2022-09-01T02:34:05;0.73;;;0.73;;
20245;SDS011;10281;54.406;18.556;2022-09-01T02:36:36;2.83;;;0.80;;
20245;SDS011;10281;54.406;18.556;2022-09-01T02:39:05;1.07;;;0.80;;
20245;SDS011;10281;54.406;18.556;2022-09-01T02:41:32;0.60;;;0.60;;
20245;SDS011;10281;54.406;18.556;2022-09-01T02:43:59;2.20;;;0.80;;
20245;SDS011;10281;54.406;18.556;2022-09-01T02:46:27;2.73;;;1.10;;
20245;SDS011;10281;54.406;18.556;2022-09-01T02:48:54;1.33;;;1.03;;
20245;SDS011;10281;54.406;18.556;2022-09-01T02:51:21;1.10;;;0.90;;
20245;SDS011;10281;54.406;18.556;2022-09-01T02:53:50;1.70;;;0.80;;
20245;SDS011;10281;54.406;18.556;2022-09-01T02:56:18;2.97;;;0.90;;
20245;SDS011;10281;54.406;18.556;2022-09-01T02:58:47;0.93;;;0.80;;
20245;SDS011;10281;54.406;18.556;2022-09-01T03:01:16;0.97;;;0.83;;
20245;SDS011;10281;54.406;18.556;2022-09-01T03:03:47;0.70;;;0.70;;
20245;SDS011;10281;54.406;18.556;2022-09-01T03:06:14;0.97;;;0.90;;
20245;SDS011;10281;54.406;18.556;2022-09-01T03:08:43;1.30;;;0.87;;
20245;SDS011;10281;54.406;18.556;2022-09-01T03:11:10;2.50;;;1.17;;
20245;SDS011;10281;54.406;18.556;2022-09-01T03:13:38;2.07;;;0.87;;
20245;SDS011;10281;54.406;18.556;2022-09-01T03:16:06;1.13;;;0.83;;
20245;SDS011;10281;54.406;18.556;2022-09-01T03:18:33;1.83;;;1.00;;
20245;SDS011;10281;54.406;18.556;2022-09-01T03:21:00;2.07;;;1.10;;
20245;SDS011;10281;54.406;18.556;2022-09-01T03:23:28;2.30;;;0.87;;
20245;SDS011;10281;54.406;18.556;2022-09-01T03:25:56;0.73;;;0.73;;
20245;SDS011;10281;54.406;18.556;2022-09-01T03:28:23;1.33;;;0.80;;
20245;SDS011;10281;54.406;18.556;2022-09-01T03:30:51;1.63;;;0.90;;
20245;SDS011;10281;54.406;18.556;2022-09-01T03:33:20;1.63;;;0.90;;
20245;SDS011;10281;54.406;18.556;2022-09-01T03:35:49;2.40;;;0.80;;
20245;SDS011;10281;54.406;18.556;2022-09-01T03:38:16;3.73;;;0.80;;
20245;SDS011;10281;54.406;18.556;2022-09-01T03:40:46;1.83;;;0.90;;
20245;SDS011;10281;54.406;18.556;2022-09-01T03:43:14;2.13;;;0.70;;
20245;SDS011;10281;54.406;18.556;2022-09-01T03:45:41;1.60;;;0.97;;
20245;SDS011;10281;54.406;18.556;2022-09-01T03:48:10;1.17;;;0.73;;
20245;SDS011;10281;54.406;18.556;2022-09-01T03:50:40;1.10;;;1.00;;
20245;SDS011;10281;54.406;18.556;2022-09-01T03:53:09;2.00;;;0.80;;
20245;SDS011;10281;54.406;18.556;2022-09-01T03:55:38;2.23;;;0.80;;
20245;SDS011;10281;54.406;18.556;2022-09-01T03:58:07;1.93;;;0.77;;
20245;SDS011;10281;54.406;18.556;2022-09-01T04:00:36;0.83;;;0.80;;
20245;SDS011;10281;54.406;18.556;2022-09-01T04:03:06;0.90;;;0.70;;
20245;SDS011;10281;54.406;18.556;2022-09-01T04:05:35;1.13;;;0.90;;
20245;SDS011;10281;54.406;18.556;2022-09-01T04:08:03;1.43;;;1.20;;
20245;SDS011;10281;54.406;18.556;2022-09-01T04:10:32;1.20;;;0.80;;
20245;SDS011;10281;54.406;18.556;2022-09-01T04:13:00;0.90;;;0.70;;
20245;SDS011;10281;54.406;18.556;2022-09-01T04:15:27;1.47;;;0.80;;
20245;SDS011;10281;54.406;18.556;2022-09-01T04:17:56;1.00;;;0.80;;
20245;SDS011;10281;54.406;18.556;2022-09-01T04:20:41;3.00;;;0.87;;
20245;SDS011;10281;54.406;18.556;2022-09-01T04:23:14;2.10;;;0.80;;
20245;SDS011;10281;54.406;18.556;2022-09-01T04:25:55;1.10;;;0.80;;
20245;SDS011;10281;54.406;18.556;2022-09-01T04:28:25;1.73;;;0.90;;
20245;SDS011;10281;54.406;18.556;2022-09-01T04:30:58;2.50;;;0.90;;
20245;SDS011;10281;54.406;18.556;2022-09-01T04:33:27;1.93;;;0.90;;
20245;SDS011;10281;54.406;18.556;2022-09-01T04:35:57;1.13;;;0.90;;
20245;SDS011;10281;54.406;18.556;2022-09-01T04:38:25;1.30;;;1.00;;
20245;SDS011;10281;54.406;18.556;2022-09-01T04:40:53;0.97;;;0.87;;
20245;SDS011;10281;54.406;18.556;2022-09-01T04:43:22;2.87;;;0.90;;
20245;SDS011;10281;54.406;18.556;2022-09-01T04:45:49;1.17;;;1.00;;
20245;SDS011;10281;54.406;18.556;2022-09-01T04:48:17;2.40;;;0.80;;
20245;SDS011;10281;54.406;18.556;2022-09-01T04:50:47;2.37;;;0.80;;
20245;SDS011;10281;54.406;18.556;2022-09-01T04:53:16;0.90;;;0.70;;
20245;SDS011;10281;54.406;18.556;2022-09-01T04:55:44;2.37;;;1.00;;
20245;SDS011;10281;54.406;18.556;2022-09-01T04:58:13;0.80;;;0.80;;
20245;SDS011;10281;54.406;18.556;2022-09-01T05:00:43;1.30;;;0.80;;
20245;SDS011;10281;54.406;18.556;2022-09-01T05:03:12;1.37;;;0.90;;
20245;SDS011;10281;54.406;18.556;2022-09-01T05:05:40;1.23;;;0.70;;
20245;SDS011;10281;54.406;18.556;2022-09-01T05:08:10;1.03;;;0.90;;
20245;SDS011;10281;54.406;18.556;2022-09-01T05:10:40;2.70;;;0.90;;
20245;SDS011;10281;54.406;18.556;2022-09-01T05:13:09;0.80;;;0.80;;
20245;SDS011;10281;54.406;18.556;2022-09-01T05:15:38;1.80;;;1.67;;
20245;SDS011;10281;54.406;18.556;2022-09-01T05:18:07;0.80;;;0.80;;
20245;SDS011;10281;54.406;18.556;2022-09-01T05:20:36;1.00;;;0.90;;
20245;SDS011;10281;54.406;18.556;2022-09-01T05:23:07;0.80;;;0.80;;
20245;SDS011;10281;54.406;18.556;2022-09-01T05:25:38;1.63;;;0.83;;
20245;SDS011;10281;54.406;18.556;2022-09-01T05:28:07;0.97;;;0.80;;
20245;SDS011;10281;54.406;18.556;2022-09-01T05:30:34;0.97;;;0.90;;
20245;SDS011;10281;54.406;18.556;2022-09-01T05:33:03;1.60;;;0.97;;
20245;SDS011;10281;54.406;18.556;2022-09-01T05:35:31;1.87;;;0.90;;
20245;SDS011;10281;54.406;18.556;2022-09-01T05:37:59;1.00;;;0.70;;
20245;SDS011;10281;54.406;18.556;2022-09-01T05:40:25;1.00;;;0.90;;
20245;SDS011;10281;54.406;18.556;2022-09-01T05:42:52;1.53;;;1.00;;
20245;SDS011;10281;54.406;18.556;2022-09-01T05:45:20;1.90;;;0.90;;
20245;SDS011;10281;54.406;18.556;2022-09-01T05:47:48;0.87;;;0.80;;
20245;SDS011;10281;54.406;18.556;2022-09-01T05:50:16;1.87;;;0.70;;
20245;SDS011;10281;54.406;18.556;2022-09-01T05:52:43;1.53;;;0.70;;
20245;SDS011;10281;54.406;18.556;2022-09-01T05:55:12;1.77;;;0.80;;
20245;SDS011;10281;54.406;18.556;2022-09-01T05:57:47;7.80;;;0.87;;
20245;SDS011;10281;54.406;18.556;2022-09-01T06:00:14;0.60;;;0.60;;
20245;SDS011;10281;54.406;18.556;2022-09-01T06:02:42;1.17;;;0.70;;
20245;SDS011;10281;54.406;18.556;2022-09-01T06:05:09;1.33;;;0.70;;
20245;SDS011;10281;54.406;18.556;2022-09-01T06:07:37;0.63;;;0.63;;
20245;SDS011;10281;54.406;18.556;2022-09-01T06:10:06;1.00;;;0.57;;
20245;SDS011;10281;54.406;18.556;2022-09-01T06:12:32;1.33;;;0.80;;
20245;SDS011;10281;54.406;18.556;2022-09-01T06:14:59;1.80;;;0.80;;
20245;SDS011;10281;54.406;18.556;2022-09-01T06:17:26;2.70;;;0.90;;
20245;SDS011;10281;54.406;18.556;2022-09-01T06:19:55;1.07;;;0.73;;
20245;SDS011;10281;54.406;18.556;2022-09-01T06:22:23;1.77;;;0.90;;
20245;SDS011;10281;54.406;18.556;2022-09-01T06:24:52;2.17;;;0.67;;
20245;SDS011;10281;54.406;18.556;2022-09-01T06:27:19;1.03;;;0.60;;
20245;SDS011;10281;54.406;18.556;2022-09-01T06:29:46;2.33;;;1.43;;
20245;SDS011;10281;54.406;18.556;2022-09-01T06:32:15;11.40;;;1.33;;
20245;SDS011;10281;54.406;18.556;2022-09-01T06:34:43;1.93;;;0.90;;
20245;SDS011;10281;54.406;18.556;2022-09-01T06:37:12;0.70;;;0.70;;
20245;SDS011;10281;54.406;18.556;2022-09-01T06:39:40;1.23;;;0.90;;
20245;SDS011;10281;54.406;18.556;2022-09-01T06:42:08;1.57;;;0.97;;
20245;SDS011;10281;54.406;18.556;2022-09-01T06:44:37;1.53;;;1.10;;
20245;SDS011;10281;54.406;18.556;2022-09-01T06:47:05;1.67;;;0.83;;
20245;SDS011;10281;54.406;18.556;2022-09-01T06:49:33;1.70;;;0.70;;
20245;SDS011;10281;54.406;18.556;2022-09-01T06:52:01;1.30;;;0.77;;
20245;SDS011;10281;54.406;18.556;2022-09-01T06:54:30;0.87;;;0.80;;
20245;SDS011;10281;54.406;18.556;2022-09-01T06:56:59;1.43;;;0.83;;
20245;SDS011;10281;54.406;18.556;2022-09-01T06:59:28;1.67;;;1.00;;
20245;SDS011;10281;54.406;18.556;2022-09-01T07:01:57;2.20;;;0.83;;
20245;SDS011;10281;54.406;18.556;2022-09-01T07:04:26;1.20;;;1.00;;
20245;SDS011;10281;54.406;18.556;2022-09-01T07:06:54;2.13;;;1.10;;
20245;SDS011;10281;54.406;18.556;2022-09-01T07:09:22;1.90;;;1.00;;
20245;SDS011;10281;54.406;18.556;2022-09-01T07:11:49;1.80;;;1.20;;
20245;SDS011;10281;54.406;18.556;2022-09-01T07:14:17;1.50;;;1.30;;
20245;SDS011;10281;54.406;18.556;2022-09-01T07:16:46;1.67;;;1.10;;
20245;SDS011;10281;54.406;18.556;2022-09-01T07:19:13;1.30;;;0.93;;
20245;SDS011;10281;54.406;18.556;2022-09-01T07:21:41;1.53;;;0.90;;
20245;SDS011;10281;54.406;18.556;2022-09-01T07:24:08;2.33;;;0.90;;
20245;SDS011;10281;54.406;18.556;2022-09-01T07:26:36;1.50;;;0.90;;
20245;SDS011;10281;54.406;18.556;2022-09-01T07:29:05;1.37;;;0.90;;
20245;SDS011;10281;54.406;18.556;2022-09-01T07:31:34;1.30;;;1.00;;
20245;SDS011;10281;54.406;18.556;2022-09-01T07:34:04;1.73;;;1.00;;
20245;SDS011;10281;54.406;18.556;2022-09-01T07:36:34;1.60;;;0.70;;
20245;SDS011;10281;54.406;18.556;2022-09-01T07:39:04;1.17;;;0.93;;
20245;SDS011;10281;54.406;18.556;2022-09-01T07:41:31;5.23;;;1.17;;
20245;SDS011;10281;54.406;18.556;2022-09-01T07:43:59;1.10;;;1.00;;
20245;SDS011;10281;54.406;18.556;2022-09-01T07:46:28;2.97;;;0.80;;
20245;SDS011;10281;54.406;18.556;2022-09-01T07:48:58;2.10;;;1.03;;
20245;SDS011;10281;54.406;18.556;2022-09-01T07:51:26;1.73;;;1.00;;
20245;SDS011;10281;54.406;18.556;2022-09-01T07:53:54;2.07;;;1.10;;
20245;SDS011;10281;54.406;18.556;2022-09-01T07:56:22;1.67;;;1.00;;
20245;SDS011;10281;54.406;18.556;2022-09-01T07:58:49;1.57;;;1.03;;
20245;SDS011;10281;54.406;18.556;2022-09-01T08:01:18;3.63;;;1.20;;
20245;SDS011;10281;54.406;18.556;2022-09-01T08:03:49;1.80;;;1.13;;
20245;SDS011;10281;54.406;18.556;2022-09-01T08:06:19;2.30;;;1.23;;
20245;SDS011;10281;54.406;18.556;2022-09-01T08:08:47;1.00;;;0.90;;
20245;SDS011;10281;54.406;18.556;2022-09-01T08:11:17;1.23;;;0.97;;
20245;SDS011;10281;54.406;18.556;2022-09-01T08:13:47;1.47;;;1.00;;
20245;SDS011;10281;54.406;18.556;2022-09-01T08:16:14;1.60;;;1.20;;
20245;SDS011;10281;54.406;18.556;2022-09-01T08:18:41;0.80;;;0.80;;
20245;SDS011;10281;54.406;18.556;2022-09-01T08:21:10;1.60;;;0.80;;
20245;SDS011;10281;54.406;18.556;2022-09-01T08:23:37;1.50;;;0.80;;
20245;SDS011;10281;54.406;18.556;2022-09-01T08:26:05;1.20;;;0.90;;
20245;SDS011;10281;54.406;18.556;2022-09-01T08:28:33;1.10;;;0.77;;
20245;SDS011;10281;54.406;18.556;2022-09-01T08:31:06;1.57;;;0.70;;
20245;SDS011;10281;54.406;18.556;2022-09-01T08:33:36;1.70;;;0.67;;
20245;SDS011;10281;54.406;18.556;2022-09-01T08:36:06;1.00;;;0.60;;
20245;SDS011;10281;54.406;18.556;2022-09-01T08:38:33;1.10;;;0.70;;
20245;SDS011;10281;54.406;18.556;2022-09-01T08:41:01;1.53;;;0.70;;
20245;SDS011;10281;54.406;18.556;2022-09-01T08:43:37;2.07;;;0.60;;
20245;SDS011;10281;54.406;18.556;2022-09-01T08:46:23;2.80;;;0.90;;
20245;SDS011;10281;54.406;18.556;2022-09-01T08:48:52;1.77;;;1.00;;
20245;SDS011;10281;54.406;18.556;2022-09-01T08:54:05;1.33;;;0.90;;
20245;SDS011;10281;54.406;18.556;2022-09-01T08:56:38;0.80;;;0.60;;
20245;SDS011;10281;54.406;18.556;2022-09-01T08:59:07;0.70;;;0.60;;
20245;SDS011;10281;54.406;18.556;2022-09-01T09:01:37;1.03;;;0.70;;
20245;SDS011;10281;54.406;18.556;2022-09-01T09:04:12;1.23;;;0.70;;
20245;SDS011;10281;54.406;18.556;2022-09-01T09:06:53;1.37;;;0.73;;
20245;SDS011;10281;54.406;18.556;2022-09-01T09:09:42;1.57;;;0.60;;
20245;SDS011;10281;54.406;18.556;2022-09-01T09:12:13;0.53;;;0.50;;
20245;SDS011;10281;54.406;18.556;2022-09-01T09:14:57;1.87;;;0.90;;
20245;SDS011;10281;54.406;18.556;2022-09-01T09:17:29;1.17;;;0.60;;
20245;SDS011;10281;54.406;18.556;2022-09-01T09:19:59;0.70;;;0.70;;
20245;SDS011;10281;54.406;18.556;2022-09-01T09:22:26;0.90;;;0.60;;
20245;SDS011;10281;54.406;18.556;2022-09-01T09:24:58;3.17;;;0.90;;
20245;SDS011;10281;54.406;18.556;2022-09-01T09:27:32;0.87;;;0.60;;
20245;SDS011;10281;54.406;18.556;2022-09-01T09:30:05;2.53;;;0.90;;
20245;SDS011;10281;54.406;18.556;2022-09-01T09:37:45;2.30;;;0.87;;
20245;SDS011;10281;54.406;18.556;2022-09-01T09:40:15;1.60;;;0.60;;
20245;SDS011;10281;54.406;18.556;2022-09-01T09:45:30;2.27;;;0.83;;
20245;SDS011;10281;54.406;18.556;2022-09-01T09:48:06;2.43;;;0.93;;
20245;SDS011;10281;54.406;18.556;2022-09-01T09:50:38;2.40;;;0.80;;
20245;SDS011;10281;54.406;18.556;2022-09-01T09:53:26;3.00;;;1.00;;
20245;SDS011;10281;54.406;18.556;2022-09-01T09:55:57;1.23;;;0.80;;
20245;SDS011;10281;54.406;18.556;2022-09-01T09:58:27;2.83;;;0.80;;
20245;SDS011;10281;54.406;18.556;2022-09-01T10:01:03;2.37;;;0.83;;
20245;SDS011;10281;54.406;18.556;2022-09-01T10:03:33;2.80;;;0.97;;
20245;SDS011;10281;54.406;18.556;2022-09-01T10:06:08;1.80;;;0.83;;
20245;SDS011;10281;54.406;18.556;2022-09-01T10:08:38;1.40;;;1.00;;
20245;SDS011;10281;54.406;18.556;2022-09-01T10:11:10;0.83;;;0.70;;
20245;SDS011;10281;54.406;18.556;2022-09-01T10:13:39;2.10;;;0.77;;
20245;SDS011;10281;54.406;18.556;2022-09-01T10:16:07;1.47;;;0.80;;
20245;SDS011;10281;54.406;18.556;2022-09-01T10:18:40;2.07;;;0.77;;
20245;SDS011;10281;54.406;18.556;2022-09-01T10:21:12;2.70;;;1.00;;
20245;SDS011;10281;54.406;18.556;2022-09-01T10:23:42;1.83;;;0.97;;
20245;SDS011;10281;54.406;18.556;2022-09-01T10:26:10;3.17;;;0.90;;
20245;SDS011;10281;54.406;18.556;2022-09-01T10:28:45;2.10;;;0.70;;
20245;SDS011;10281;54.406;18.556;2022-09-01T10:31:13;5.13;;;1.70;;
20245;SDS011;10281;54.406;18.556;2022-09-01T10:33:40;2.37;;;1.70;;
20245;SDS011;10281;54.406;18.556;2022-09-01T10:36:07;2.27;;;1.20;;
20245;SDS011;10281;54.406;18.556;2022-09-01T10:38:34;1.53;;;0.87;;
20245;SDS011;10281;54.406;18.556;2022-09-01T10:41:02;1.03;;;0.90;;
20245;SDS011;10281;54.406;18.556;2022-09-01T10:43:40;1.70;;;1.00;;
20245;SDS011;10281;54.406;18.556;2022-09-01T10:49:12;1.13;;;0.90;;
20245;SDS011;10281;54.406;18.556;2022-09-01T10:51:45;2.07;;;0.70;;
20245;SDS011;10281;54.406;18.556;2022-09-01T10:54:49;1.90;;;0.73;;
20245;SDS011;10281;54.406;18.556;2022-09-01T10:57:29;1.00;;;0.80;;
20245;SDS011;10281;54.406;18.556;2022-09-01T11:06:00;0.83;;;0.60;;
20245;SDS011;10281;54.406;18.556;2022-09-01T11:08:44;1.10;;;0.60;;
20245;SDS011;10281;54.406;18.556;2022-09-01T11:11:22;1.57;;;1.20;;
20245;SDS011;10281;54.406;18.556;2022-09-01T11:13:53;1.97;;;0.80;;
20245;SDS011;10281;54.406;18.556;2022-09-01T11:16:27;1.77;;;0.63;;
20245;SDS011;10281;54.406;18.556;2022-09-01T11:21:37;1.73;;;0.70;;
20245;SDS011;10281;54.406;18.556;2022-09-01T11:26:43;1.90;;;0.63;;
20245;SDS011;10281;54.406;18.556;2022-09-01T11:31:51;0.60;;;0.60;;
20245;SDS011;10281;54.406;18.556;2022-09-01T11:34:19;2.70;;;0.97;;
20245;SDS011;10281;54.406;18.556;2022-09-01T11:36:50;1.67;;;0.90;;
20245;SDS011;10281;54.406;18.556;2022-09-01T11:42:11;0.80;;;0.60;;
20245;SDS011;10281;54.406;18.556;2022-09-01T11:44:47;1.30;;;0.70;;
20245;SDS011;10281;54.406;18.556;2022-09-01T11:47:19;1.00;;;0.60;;
20245;SDS011;10281;54.406;18.556;2022-09-01T11:49:52;1.47;;;0.50;;
20245;SDS011;10281;54.406;18.556;2022-09-01T11:52:25;0.90;;;0.53;;
20245;SDS011;10281;54.406;18.556;2022-09-01T11:54:54;1.63;;;0.70;;
20245;SDS011;10281;54.406;18.556;2022-09-01T11:57:27;0.87;;;0.50;;
20245;SDS011;10281;54.406;18.556;2022-09-01T11:59:56;1.20;;;0.60;;
20245;SDS011;10281;54.406;18.556;2022-09-01T12:02:26;0.90;;;0.50;;
20245;SDS011;10281;54.406;18.556;2022-09-01T12:04:56;0.90;;;0.70;;
20245;SDS011;10281;54.406;18.556;2022-09-01T12:07:26;1.20;;;0.50;;
20245;SDS011;10281;54.406;18.556;2022-09-01T12:09:55;0.87;;;0.80;;
20245;SDS011;10281;54.406;18.556;2022-09-01T12:12:30;0.80;;;0.60;;
20245;SDS011;10281;54.406;18.556;2022-09-01T12:15:06;2.60;;;0.83;;
20245;SDS011;10281;54.406;18.556;2022-09-01T12:17:35;1.43;;;1.00;;
20245;SDS011;10281;54.406;18.556;2022-09-01T12:22:41;1.27;;;0.70;;
20245;SDS011;10281;54.406;18.556;2022-09-01T12:25:16;1.53;;;0.73;;
20245;SDS011;10281;54.406;18.556;2022-09-01T12:27:42;1.57;;;0.80;;
20245;SDS011;10281;54.406;18.556;2022-09-01T12:30:09;0.83;;;0.60;;
20245;SDS011;10281;54.406;18.556;2022-09-01T12:32:37;1.20;;;0.60;;
20245;SDS011;10281;54.406;18.556;2022-09-01T12:35:04;0.90;;;0.50;;
20245;SDS011;10281;54.406;18.556;2022-09-01T12:37:35;0.90;;;0.40;;
20245;SDS011;10281;54.406;18.556;2022-09-01T12:40:02;1.63;;;0.70;;
20245;SDS011;10281;54.406;18.556;2022-09-01T12:42:30;1.00;;;0.53;;
20245;SDS011;10281;54.406;18.556;2022-09-01T12:44:59;0.53;;;0.50;;
20245;SDS011;10281;54.406;18.556;2022-09-01T12:53:00;1.40;;;0.63;;
20245;SDS011;10281;54.406;18.556;2022-09-01T12:55:31;1.43;;;0.70;;
20245;SDS011;10281;54.406;18.556;2022-09-01T12:58:01;1.97;;;0.83;;
20245;SDS011;10281;54.406;18.556;2022-09-01T13:00:32;1.40;;;0.70;;
20245;SDS011;10281;54.406;18.556;2022-09-01T13:03:07;2.23;;;0.60;;
20245;SDS011;10281;54.406;18.556;2022-09-01T13:05:36;0.63;;;0.63;;
20245;SDS011;10281;54.406;18.556;2022-09-01T13:08:06;1.57;;;0.73;;
20245;SDS011;10281;54.406;18.556;2022-09-01T13:10:35;1.10;;;0.67;;
20245;SDS011;10281;54.406;18.556;2022-09-01T13:13:05;1.43;;;0.60;;
20245;SDS011;10281;54.406;18.556;2022-09-01T13:15:33;0.40;;;0.40;;
20245;SDS011;10281;54.406;18.556;2022-09-01T13:18:01;1.87;;;0.70;;
20245;SDS011;10281;54.406;18.556;2022-09-01T13:20:27;1.10;;;0.70;;
20245;SDS011;10281;54.406;18.556;2022-09-01T13:22:54;0.50;;;0.50;;
20245;SDS011;10281;54.406;18.556;2022-09-01T13:25:21;0.50;;;0.50;;
20245;SDS011;10281;54.406;18.556;2022-09-01T13:27:48;1.03;;;0.70;;
20245;SDS011;10281;54.406;18.556;2022-09-01T13:30:18;1.50;;;0.50;;
20245;SDS011;10281;54.406;18.556;2022-09-01T13:32:46;0.53;;;0.53;;
20245;SDS011;10281;54.406;18.556;2022-09-01T13:35:14;0.60;;;0.60;;
20245;SDS011;10281;54.406;18.556;2022-09-01T13:37:46;1.10;;;0.50;;
20245;SDS011;10281;54.406;18.556;2022-09-01T13:40:14;1.90;;;0.80;;
20245;SDS011;10281;54.406;18.556;2022-09-01T13:42:43;2.57;;;0.70;;
20245;SDS011;10281;54.406;18.556;2022-09-01T13:45:11;0.87;;;0.70;;
20245;SDS011;10281;54.406;18.556;2022-09-01T13:47:39;1.97;;;0.90;;
20245;SDS011;10281;54.406;18.556;2022-09-01T13:50:06;1.07;;;0.80;;
20245;SDS011;10281;54.406;18.556;2022-09-01T13:52:35;1.00;;;0.70;;
20245;SDS011;10281;54.406;18.556;2022-09-01T13:55:03;1.03;;;0.60;;
20245;SDS011;10281;54.406;18.556;2022-09-01T13:57:31;1.10;;;0.40;;
20245;SDS011;10281;54.406;18.556;2022-09-01T13:59:59;0.90;;;0.50;;
20245;SDS011;10281;54.406;18.556;2022-09-01T14:02:25;1.53;;;0.60;;
20245;SDS011;10281;54.406;18.556;2022-09-01T14:04:53;0.60;;;0.60;;
20245;SDS011;10281;54.406;18.556;2022-09-01T14:07:19;1.13;;;0.53;;
20245;SDS011;10281;54.406;18.556;2022-09-01T14:09:46;3.27;;;0.63;;
20245;SDS011;10281;54.406;18.556;2022-09-01T14:12:13;1.50;;;0.80;;
20245;SDS011;10281;54.406;18.556;2022-09-01T14:14:40;1.03;;;0.53;;
20245;SDS011;10281;54.406;18.556;2022-09-01T14:17:07;2.07;;;0.60;;
20245;SDS011;10281;54.406;18.556;2022-09-01T14:19:33;0.67;;;0.40;;
20245;SDS011;10281;54.406;18.556;2022-09-01T14:22:01;1.30;;;0.50;;
20245;SDS011;10281;54.406;18.556;2022-09-01T14:24:29;1.50;;;0.90;;
20245;SDS011;10281;54.406;18.556;2022-09-01T14:27:00;1.67;;;0.60;;
20245;SDS011;10281;54.406;18.556;2022-09-01T14:29:27;0.70;;;0.60;;
20245;SDS011;10281;54.406;18.556;2022-09-01T14:31:54;0.60;;;0.40;;
20245;SDS011;10281;54.406;18.556;2022-09-01T14:34:22;0.67;;;0.50;;
20245;SDS011;10281;54.406;18.556;2022-09-01T14:36:49;0.60;;;0.50;;
20245;SDS011;10281;54.406;18.556;2022-09-01T14:39:19;0.60;;;0.60;;
20245;SDS011;10281;54.406;18.556;2022-09-01T14:41:45;1.83;;;0.60;;
20245;SDS011;10281;54.406;18.556;2022-09-01T14:44:12;1.03;;;0.63;;
20245;SDS011;10281;54.406;18.556;2022-09-01T14:46:38;2.30;;;0.60;;
20245;SDS011;10281;54.406;18.556;2022-09-01T14:49:05;1.77;;;0.73;;
20245;SDS011;10281;54.406;18.556;2022-09-01T14:51:32;4.03;;;0.90;;
20245;SDS011;10281;54.406;18.556;2022-09-01T14:54:00;1.57;;;0.70;;
20245;SDS011;10281;54.406;18.556;2022-09-01T14:56:27;3.23;;;0.90;;
20245;SDS011;10281;54.406;18.556;2022-09-01T14:58:54;1.80;;;0.60;;
20245;SDS011;10281;54.406;18.556;2022-09-01T15:01:23;1.40;;;0.70;;
20245;SDS011;10281;54.406;18.556;2022-09-01T15:03:50;0.73;;;0.47;;
20245;SDS011;10281;54.406;18.556;2022-09-01T15:06:18;3.60;;;0.90;;
20245;SDS011;10281;54.406;18.556;2022-09-01T15:08:45;1.00;;;0.70;;
20245;SDS011;10281;54.406;18.556;2022-09-01T15:11:14;1.63;;;0.70;;
20245;SDS011;10281;54.406;18.556;2022-09-01T15:13:44;0.83;;;0.43;;
20245;SDS011;10281;54.406;18.556;2022-09-01T15:16:13;1.23;;;0.70;;
20245;SDS011;10281;54.406;18.556;2022-09-01T15:18:42;1.10;;;0.70;;
20245;SDS011;10281;54.406;18.556;2022-09-01T15:23:43;1.40;;;0.60;;
20245;SDS011;10281;54.406;18.556;2022-09-01T15:26:13;1.53;;;0.57;;
20245;SDS011;10281;54.406;18.556;2022-09-01T15:28:42;1.03;;;0.60;;